Terminal Aerodrome Forecast
Issued by NWS

Home | Current Version | Previous Version | Text Only | Print | Product List | Glossary On
Versions: 1 2 3 4 5 6 7 8 9 10 11 12 13 14 15 16 17 18 19 20 21 22 23
000
FTUS46 KLOX 222300
TAFSBP
TAF
KSBP 222339Z 2300/2324 31016KT P6SM SKC
     FM230200 31008KT P6SM SKC
     FM230800 VRB03KT P6SM OVC007
     FM231000 VRB03KT P6SM OVC004
     FM231600 VRB03KT P6SM OVC006
     FM231800 VRB03KT P6SM SKC
     FM232000 29010KT P6SM SKC
     FM232300 30014KT P6SM SKC=

USA.gov is the U.S. government's official web portal to all federal, state and local government web resources and services.